Time;durP1;ratioP1;P1;durP2;ratioP2;P2;SDS_P1;SDS_P2;PMS_P1;PMS_P2;Temp;Humidity;BMP_temperature;BMP_pressure;BME280_temperature;BME280_humidity;BME280_pressure;Samples;Min_cycle;Max_cycle;Signal;HPM_P1;HPM_P2
2022/04/22 00:00:13;;;;;;;13.93;8.87;;;10.70;99.90;;;;;;5058985;28;20665;-62
2022/04/22 00:02:40;;;;;;;10.57;8.93;;;10.70;99.90;;;;;;5063282;28;20195;-62
2022/04/22 00:05:07;;;;;;;12.47;8.73;;;10.80;99.90;;;;;;5040024;28;20226;-62
2022/04/22 00:07:34;;;;;;;10.57;9.27;;;10.80;99.90;;;;;;5047079;28;20223;-62
2022/04/22 00:10:02;;;;;;;12.13;8.40;;;10.80;99.90;;;;;;5064974;28;20302;-62
2022/04/22 00:12:29;;;;;;;10.70;8.83;;;10.80;99.90;;;;;;5066620;28;20274;-62
2022/04/22 00:14:56;;;;;;;13.83;9.00;;;10.70;99.90;;;;;;5066343;28;20611;-62
2022/04/22 00:17:23;;;;;;;12.97;9.13;;;10.70;99.90;;;;;;5050033;28;20233;-62
2022/04/22 00:19:50;;;;;;;13.80;9.07;;;10.70;99.90;;;;;;5066971;28;22587;-62
2022/04/22 00:22:17;;;;;;;11.97;9.00;;;10.70;99.90;;;;;;5048921;28;20615;-62
2022/04/22 00:24:46;;;;;;;12.47;9.17;;;10.70;99.90;;;;;;5067736;28;20202;-61
2022/04/22 00:27:13;;;;;;;12.83;8.93;;;10.70;99.90;;;;;;5048611;28;20195;-62
2022/04/22 00:29:40;;;;;;;11.03;8.83;;;10.70;99.90;;;;;;5062856;28;20841;-62
2022/04/22 00:32:07;;;;;;;12.93;9.50;;;10.70;99.90;;;;;;5066390;28;20241;-62
2022/04/22 00:34:37;;;;;;;13.53;9.40;;;10.60;99.90;;;;;;5067850;28;20604;-62
2022/04/22 00:37:05;;;;;;;11.60;9.70;;;10.60;99.90;;;;;;5066710;28;20205;-62
2022/04/22 00:39:32;;;;;;;13.93;10.10;;;10.50;99.90;;;;;;5066137;28;20268;-62
2022/04/22 00:42:10;;;;;;;13.27;10.27;;;10.50;99.90;;;;;;5066706;28;20201;-62
2022/04/22 00:44:37;;;;;;;12.20;9.90;;;10.50;99.90;;;;;;5065904;28;20708;-62
2022/04/22 00:47:05;;;;;;;13.47;10.53;;;10.50;99.90;;;;;;5068405;28;20194;-62
2022/04/22 00:49:32;;;;;;;13.40;10.57;;;10.50;99.90;;;;;;5069272;28;20198;-62
2022/04/22 00:51:59;;;;;;;13.93;10.60;;;10.50;99.90;;;;;;5052200;28;20215;-62
2022/04/22 00:54:26;;;;;;;13.33;10.50;;;10.50;99.90;;;;;;5072142;28;20706;-62
2022/04/22 00:56:53;;;;;;;15.40;11.47;;;10.50;99.90;;;;;;5052529;28;20231;-62
2022/04/22 00:59:20;;;;;;;14.07;11.57;;;10.50;99.90;;;;;;5068657;28;20273;-61
2022/04/22 01:01:55;;;;;;;16.63;11.37;;;10.50;99.90;;;;;;5054949;28;20248;-62
2022/04/22 01:09:53;;;;;;;14.77;12.37;;;10.60;99.90;;;;;;5069978;28;20221;-62
2022/04/22 01:12:25;;;;;;;16.40;11.63;;;10.60;99.90;;;;;;5052113;28;20187;-62
2022/04/22 01:14:52;;;;;;;15.47;12.30;;;10.60;99.90;;;;;;5054378;28;20688;-62
2022/04/22 01:17:20;;;;;;;15.77;11.70;;;10.50;99.90;;;;;;5051859;28;20264;-62
2022/04/22 01:19:51;;;;;;;16.77;13.20;;;10.50;99.90;;;;;;5067026;28;20187;-62
2022/04/22 01:22:18;;;;;;;15.60;11.30;;;10.60;99.90;;;;;;5068189;28;20201;-62
2022/04/22 01:24:45;;;;;;;19.20;12.13;;;10.60;99.90;;;;;;5070150;28;20704;-63
2022/04/22 01:27:14;;;;;;;16.10;12.10;;;10.50;99.90;;;;;;5068862;28;20260;-62
2022/04/22 01:29:41;;;;;;;15.37;11.87;;;10.50;99.90;;;;;;5051103;28;20248;-62
2022/04/22 01:32:09;;;;;;;15.63;12.57;;;10.50;99.90;;;;;;5051309;28;20215;-61
2022/04/22 01:34:37;;;;;;;15.93;12.67;;;10.50;99.90;;;;;;5067363;28;20687;-61
2022/04/22 01:37:04;;;;;;;15.30;11.80;;;10.40;99.90;;;;;;5051869;28;20203;-62
2022/04/22 01:39:32;;;;;;;16.10;12.63;;;10.50;99.90;;;;;;5067793;28;20214;-62
2022/04/22 01:41:59;;;;;;;15.03;12.07;;;10.50;99.90;;;;;;5049883;28;20257;-62
2022/04/22 01:44:26;;;;;;;17.93;12.00;;;10.40;99.90;;;;;;5067203;28;20288;-62
2022/04/22 01:46:53;;;;;;;19.47;12.70;;;10.40;99.90;;;;;;5066196;28;20248;-62
2022/04/22 01:49:20;;;;;;;16.23;12.37;;;10.40;99.90;;;;;;5067301;28;20195;-62
2022/04/22 01:51:49;;;;;;;17.10;12.60;;;10.40;99.90;;;;;;5057652;28;20259;-62
2022/04/22 01:54:19;;;;;;;16.43;11.93;;;10.30;99.90;;;;;;5051806;28;20209;-62
2022/04/22 01:56:46;;;;;;;18.03;12.93;;;10.30;99.90;;;;;;5049936;28;20191;-62
2022/04/22 01:59:13;;;;;;;16.77;12.70;;;10.30;99.90;;;;;;5070129;28;20195;-63
2022/04/22 02:01:40;;;;;;;17.00;13.07;;;10.30;99.90;;;;;;5067370;28;20195;-62
2022/04/22 02:04:07;;;;;;;15.93;12.57;;;10.30;99.90;;;;;;5057288;28;20624;-63
2022/04/22 02:06:34;;;;;;;16.03;12.97;;;10.20;99.90;;;;;;5042991;28;20766;-62
2022/04/22 02:09:01;;;;;;;20.37;13.20;;;10.20;99.90;;;;;;5067186;28;20274;-62
2022/04/22 02:11:28;;;;;;;16.07;13.97;;;10.20;99.90;;;;;;5067842;28;20219;-63
2022/04/22 02:13:58;;;;;;;18.30;13.73;;;10.20;99.90;;;;;;5068996;28;20673;-62
2022/04/22 02:16:25;;;;;;;19.63;14.47;;;10.20;1.00;;;;;;5067866;28;20187;-62
2022/04/22 02:18:54;;;;;;;20.70;15.17;;;10.20;1.00;;;;;;5049994;28;20717;-62
2022/04/22 02:21:21;;;;;;;18.37;15.70;;;10.20;1.00;;;;;;5040913;28;20321;-62
2022/04/22 02:23:48;;;;;;;20.40;15.20;;;10.20;1.00;;;;;;5065383;28;20678;-62
2022/04/22 02:26:15;;;;;;;19.47;15.73;;;10.10;1.00;;;;;;5049513;28;20250;-61
2022/04/22 02:28:42;;;;;;;19.90;16.13;;;10.10;1.00;;;;;;5066349;28;20230;-61
2022/04/22 02:31:11;;;;;;;24.97;17.43;;;10.10;1.00;;;;;;5049925;28;20276;-63
2022/04/22 02:33:41;;;;;;;19.50;16.03;;;10.10;1.00;;;;;;5068424;28;20270;-62
2022/04/22 02:36:10;;;;;;;22.30;17.07;;;10.10;1.00;;;;;;5049612;28;20229;-62
2022/04/22 02:38:37;;;;;;;19.30;15.60;;;10.10;1.00;;;;;;5066229;28;20214;-63
2022/04/22 02:46:42;;;;;;;22.03;18.83;;;10.20;1.00;;;;;;5033242;28;20272;-62
2022/04/22 02:49:09;;;;;;;24.70;19.60;;;10.20;1.00;;;;;;5049535;28;20205;-62
2022/04/22 02:51:36;;;;;;;27.73;20.03;;;10.20;1.00;;;;;;5064811;28;20213;-63
2022/04/22 02:54:04;;;;;;;25.33;20.00;;;10.20;1.00;;;;;;5044054;28;20762;-62
2022/04/22 02:56:32;;;;;;;23.27;19.93;;;10.20;1.00;;;;;;5067164;28;20206;-63
2022/04/22 02:59:00;;;;;;;24.23;19.40;;;10.30;1.00;;;;;;5066878;28;20277;-63
2022/04/22 03:01:27;;;;;;;24.83;19.80;;;10.30;1.00;;;;;;5065175;28;20260;-63
2022/04/22 03:03:57;;;;;;;25.00;21.23;;;10.30;1.00;;;;;;5034094;28;20294;-63
2022/04/22 03:06:26;;;;;;;26.27;22.27;;;10.20;1.00;;;;;;5066194;28;20203;-62
2022/04/22 03:08:53;;;;;;;28.13;21.30;;;10.20;1.00;;;;;;5067441;28;20194;-62
2022/04/22 03:11:21;;;;;;;26.77;22.07;;;10.20;1.00;;;;;;5066530;28;20297;-62
2022/04/22 03:13:54;;;;;;;27.33;22.37;;;10.20;1.00;;;;;;5048123;28;20290;-62
2022/04/22 03:16:25;;;;;;;28.13;23.30;;;10.20;1.00;;;;;;5063734;28;20191;-62
2022/04/22 03:18:52;;;;;;;25.50;22.07;;;10.20;1.00;;;;;;5066516;28;20195;-62
2022/04/22 03:21:19;;;;;;;25.87;22.57;;;10.20;1.00;;;;;;5063772;28;20274;-62
2022/04/22 03:23:46;;;;;;;27.30;23.50;;;10.20;1.00;;;;;;5065414;28;20195;-62
2022/04/22 03:26:13;;;;;;;30.60;24.17;;;10.20;1.00;;;;;;5048894;28;20234;-62
2022/04/22 03:28:40;;;;;;;26.47;22.30;;;10.20;1.00;;;;;;5065202;28;20197;-62
2022/04/22 03:31:08;;;;;;;29.10;22.30;;;10.20;1.00;;;;;;5048754;28;20214;-62
2022/04/22 03:33:35;;;;;;;27.80;22.60;;;10.20;1.00;;;;;;5066225;28;20573;-62
2022/04/22 03:36:02;;;;;;;28.57;21.43;;;10.20;1.00;;;;;;5033466;28;20199;-62
2022/04/22 03:38:29;;;;;;;25.90;22.50;;;10.20;1.00;;;;;;5054276;28;20303;-62
2022/04/22 03:40:56;;;;;;;26.17;22.03;;;10.20;1.00;;;;;;5057107;28;20234;-63
2022/04/22 03:43:25;;;;;;;25.23;21.67;;;10.20;1.00;;;;;;5064615;28;20636;-62
2022/04/22 03:45:54;;;;;;;24.90;20.47;;;10.20;1.00;;;;;;5066064;28;20190;-62
2022/04/22 03:48:21;;;;;;;23.83;21.23;;;10.20;1.00;;;;;;5055107;28;20193;-62
2022/04/22 03:50:48;;;;;;;24.37;20.30;;;10.20;1.00;;;;;;5040172;28;20207;-62
2022/04/22 03:53:15;;;;;;;25.83;21.63;;;10.20;1.00;;;;;;5065974;28;20265;-62
2022/04/22 03:55:43;;;;;;;22.53;19.90;;;10.20;1.00;;;;;;5053340;28;20202;-62
2022/04/22 03:58:11;;;;;;;22.63;19.33;;;10.20;1.00;;;;;;5066091;28;20230;-61
2022/04/22 04:00:43;;;;;;;21.60;19.30;;;10.20;1.00;;;;;;5065674;28;20214;-62
2022/04/22 04:03:13;;;;;;;22.47;19.83;;;10.20;1.00;;;;;;5047974;28;20203;-63
2022/04/22 04:05:45;;;;;;;25.40;19.30;;;10.20;1.00;;;;;;5064949;28;20195;-62
2022/04/22 04:08:12;;;;;;;23.03;19.23;;;10.20;1.00;;;;;;5064558;28;20270;-62
2022/04/22 04:16:10;;;;;;;24.47;20.10;;;10.30;1.00;;;;;;5065063;28;20356;-63
2022/04/22 04:18:38;;;;;;;19.10;16.83;;;10.20;1.00;;;;;;5065530;28;20195;-62
2022/04/22 04:23:59;;;;;;;21.13;17.07;;;10.20;1.00;;;;;;5047031;28;20220;-63
2022/04/22 04:26:26;;;;;;;20.53;17.27;;;10.20;1.00;;;;;;5064687;28;20247;-62
2022/04/22 04:28:53;;;;;;;20.30;17.67;;;10.20;1.00;;;;;;5064192;28;20556;-62
2022/04/22 04:31:21;;;;;;;22.23;17.83;;;10.20;1.00;;;;;;5056055;28;20207;-63
2022/04/22 04:33:50;;;;;;;21.23;18.40;;;10.20;1.00;;;;;;5047662;28;20191;-63
2022/04/22 04:36:17;;;;;;;19.17;16.33;;;10.20;1.00;;;;;;5066872;28;20263;-62
2022/04/22 04:38:45;;;;;;;21.20;17.97;;;10.20;1.00;;;;;;5066401;28;20685;-63
2022/04/22 04:41:13;;;;;;;21.47;17.40;;;10.30;1.00;;;;;;5063675;28;20576;-63
2022/04/22 04:43:42;;;;;;;22.27;18.73;;;10.30;1.00;;;;;;5065440;28;20285;-63
2022/04/22 04:46:09;;;;;;;19.53;16.97;;;10.30;1.00;;;;;;5063265;28;20243;-63
2022/04/22 04:48:37;;;;;;;19.70;15.80;;;10.20;1.00;;;;;;5063567;28;20317;-63
2022/04/22 04:51:05;;;;;;;19.90;16.50;;;10.30;1.00;;;;;;5067125;28;20914;-62
2022/04/22 04:53:32;;;;;;;18.23;15.97;;;10.20;1.00;;;;;;5062332;28;20202;-62
2022/04/22 04:55:59;;;;;;;20.23;16.60;;;10.20;1.00;;;;;;5068234;28;20723;-62
2022/04/22 04:58:26;;;;;;;17.50;15.47;;;10.30;1.00;;;;;;5040810;28;20199;-62
2022/04/22 05:00:53;;;;;;;17.90;14.63;;;10.20;1.00;;;;;;5052584;28;20630;-61
2022/04/22 05:03:20;;;;;;;17.70;15.60;;;10.20;1.00;;;;;;5065300;28;20757;-61
2022/04/22 05:05:47;;;;;;;17.10;15.03;;;10.30;1.00;;;;;;5057898;28;20206;-62
2022/04/22 05:08:14;;;;;;;20.73;15.13;;;10.30;1.00;;;;;;5055110;28;20252;-62
2022/04/22 05:10:41;;;;;;;20.93;15.37;;;10.30;1.00;;;;;;5066788;28;20230;-62
2022/04/22 05:13:08;;;;;;;17.63;15.03;;;10.30;1.00;;;;;;5046509;28;20722;-62
2022/04/22 05:15:35;;;;;;;15.90;14.20;;;10.30;1.00;;;;;;5040788;28;20670;-62
2022/04/22 05:18:03;;;;;;;17.07;15.37;;;10.30;1.00;;;;;;5049354;28;20234;-62
2022/04/22 05:20:32;;;;;;;18.47;15.40;;;10.30;1.00;;;;;;5046661;28;20225;-63
2022/04/22 05:22:59;;;;;;;16.67;14.67;;;10.30;1.00;;;;;;5048022;28;20206;-62
2022/04/22 05:25:26;;;;;;;21.40;15.43;;;10.30;1.00;;;;;;5066744;28;20717;-62
2022/04/22 05:27:54;;;;;;;16.90;15.13;;;10.30;1.00;;;;;;5042000;28;20226;-63
2022/04/22 05:33:07;;;;;;;17.10;15.30;;;10.40;1.00;;;;;;5050471;28;20218;-62
2022/04/22 05:35:34;;;;;;;17.90;15.40;;;10.40;1.00;;;;;;5050610;28;20252;-62
2022/04/22 05:38:06;;;;;;;17.10;15.27;;;10.40;1.00;;;;;;5068908;28;20215;-62
2022/04/22 05:40:35;;;;;;;16.97;15.17;;;10.40;1.00;;;;;;5069525;28;20839;-62
2022/04/22 05:43:03;;;;;;;17.87;15.03;;;10.40;1.00;;;;;;5047145;28;20616;-62
2022/04/22 05:45:30;;;;;;;20.57;15.07;;;10.40;1.00;;;;;;5048938;28;20209;-63
2022/04/22 05:47:58;;;;;;;16.73;14.17;;;10.50;1.00;;;;;;5051195;28;20199;-62
2022/04/22 05:50:26;;;;;;;15.53;13.80;;;10.70;1.00;;;;;;5041729;28;20213;-62
2022/04/22 05:52:54;;;;;;;18.50;14.67;;;10.90;99.90;;;;;;5049360;28;20294;-62
2022/04/22 05:55:26;;;;;;;16.70;14.90;;;11.10;99.90;;;;;;5067446;28;20195;-63
2022/04/22 05:57:54;;;;;;;16.60;14.67;;;11.20;99.90;;;;;;5065389;28;20194;-63
2022/04/22 06:00:23;;;;;;;17.67;15.30;;;11.00;99.90;;;;;;5067381;28;20714;-61
2022/04/22 06:02:52;;;;;;;17.73;15.73;;;10.90;99.90;;;;;;5066103;28;20198;-62
2022/04/22 06:05:20;;;;;;;16.83;15.10;;;11.00;99.90;;;;;;5065618;28;20227;-61
2022/04/22 06:10:31;;;;;;;16.87;15.10;;;11.20;99.90;;;;;;5048793;28;20202;-61
2022/04/22 06:10:37;;;;;;;20.17;15.83;;;11.20;99.90;;;;;;5048070;28;20290;-61
2022/04/22 06:13:05;;;;;;;18.13;14.20;;;11.10;99.90;;;;;;5045624;28;20261;-62
2022/04/22 06:15:33;;;;;;;18.87;15.43;;;11.20;99.90;;;;;;5064692;28;20236;-63
2022/04/22 06:18:01;;;;;;;17.33;15.40;;;11.20;99.90;;;;;;5048957;28;20195;-61
2022/04/22 06:20:28;;;;;;;17.60;15.50;;;11.20;99.90;;;;;;5064596;28;20187;-61
2022/04/22 06:22:55;;;;;;;18.63;14.97;;;11.30;99.90;;;;;;5047251;28;20206;-62
2022/04/22 06:25:23;;;;;;;19.03;15.70;;;11.40;99.90;;;;;;5066293;28;20244;-63
2022/04/22 06:27:50;;;;;;;19.30;15.43;;;11.50;99.90;;;;;;5065678;28;20195;-62
2022/04/22 06:30:19;;;;;;;17.53;15.63;;;11.60;60.20;;;;;;5066755;28;21221;-62
2022/04/22 06:32:48;;;;;;;19.93;15.60;;;11.90;1.00;;;;;;5066496;28;20774;-62
2022/04/22 06:35:20;;;;;;;17.20;15.07;;;12.30;1.00;;;;;;5048511;28;20269;-62
2022/04/22 06:37:51;;;;;;;17.27;14.97;;;12.70;1.00;;;;;;5048773;28;20506;-63
2022/04/22 06:45:52;;;;;;;16.70;13.77;;;15.50;5.90;;;;;;5065067;28;20332;-62
2022/04/22 06:48:29;;;;;;;15.83;14.13;;;15.60;1.00;;;;;;5063252;28;20199;-62
2022/04/22 06:51:13;;;;;;;16.57;14.60;;;15.60;1.00;;;;;;5050340;28;20278;-62
2022/04/22 06:53:41;;;;;;;16.80;15.03;;;15.80;1.00;;;;;;5066085;28;20199;-62
2022/04/22 06:56:08;;;;;;;21.03;15.43;;;16.10;1.00;;;;;;5067183;28;21125;-62
2022/04/22 06:58:37;;;;;;;16.63;14.93;;;16.00;1.00;;;;;;5066446;28;20685;-62
2022/04/22 07:01:06;;;;;;;17.30;14.43;;;16.00;1.00;;;;;;5045682;28;20234;-63
2022/04/22 07:03:54;;;;;;;17.80;15.90;;;15.60;1.00;;;;;;5053548;28;20198;-62
2022/04/22 07:06:21;;;;;;;17.80;15.60;;;14.70;99.90;;;;;;5066671;28;20230;-62
2022/04/22 07:08:49;;;;;;;19.33;15.97;;;14.20;99.90;;;;;;5066993;28;21009;-62
2022/04/22 07:11:26;;;;;;;20.70;16.23;;;13.40;99.90;;;;;;5048499;28;20218;-61
2022/04/22 07:13:55;;;;;;;18.47;16.20;;;13.20;1.00;;;;;;5065820;28;20221;-62
2022/04/22 07:16:23;;;;;;;17.10;15.30;;;13.50;99.90;;;;;;5068475;28;20775;-62
2022/04/22 07:18:53;;;;;;;19.93;16.10;;;13.60;99.90;;;;;;5064633;28;20555;-62
2022/04/22 07:21:24;;;;;;;16.47;14.70;;;13.70;99.90;;;;;;5065249;28;20274;-62
2022/04/22 07:23:52;;;;;;;18.57;14.87;;;14.10;99.90;;;;;;5066025;28;20292;-62
2022/04/22 07:26:20;;;;;;;17.23;14.97;;;14.50;99.90;;;;;;5065976;28;20217;-62
2022/04/22 07:28:49;;;;;;;16.97;15.00;;;15.20;1.00;;;;;;5066430;28;20191;-62
2022/04/22 07:31:18;;;;;;;17.40;14.60;;;14.80;90.00;;;;;;5066731;28;20264;-61
2022/04/22 07:33:46;;;;;;;17.83;14.80;;;14.60;99.90;;;;;;5065586;28;20226;-62
2022/04/22 07:36:13;;;;;;;17.07;14.80;;;14.30;99.90;;;;;;5065733;28;20228;-62
2022/04/22 07:38:40;;;;;;;18.17;15.53;;;14.30;99.90;;;;;;5047379;28;20215;-62
2022/04/22 07:41:08;;;;;;;17.07;14.87;;;14.10;99.90;;;;;;5066652;28;20226;-62
2022/04/22 07:49:09;;;;;;;16.37;14.60;;;14.70;78.00;;;;;;5064400;28;20277;-62
2022/04/22 07:51:36;;;;;;;17.10;13.97;;;16.50;1.00;;;;;;5066386;28;20720;-63
2022/04/22 07:54:04;;;;;;;16.57;14.97;;;15.90;1.00;;;;;;5054426;28;20686;-63
2022/04/22 07:56:31;;;;;;;15.67;13.20;;;15.20;1.00;;;;;;5039971;28;20689;-62
2022/04/22 07:58:58;;;;;;;16.50;14.47;;;15.30;1.00;;;;;;5064700;28;20211;-63
2022/04/22 08:01:26;;;;;;;20.70;15.03;;;15.30;1.00;;;;;;5047133;28;20187;-62
2022/04/22 08:03:55;;;;;;;16.40;14.67;;;14.80;1.00;;;;;;5064656;28;20217;-62
2022/04/22 08:06:22;;;;;;;17.77;13.87;;;14.80;24.00;;;;;;5038000;28;20249;-62
2022/04/22 08:08:49;;;;;;;19.77;14.27;;;16.50;1.00;;;;;;5064998;28;20634;-62
2022/04/22 08:11:18;;;;;;;17.20;13.87;;;16.00;1.00;;;;;;5055615;28;22345;-61
2022/04/22 08:13:46;;;;;;;15.07;12.97;;;16.50;1.00;;;;;;5061725;28;20223;-62
2022/04/22 08:16:13;;;;;;;16.87;13.73;;;17.50;1.00;;;;;;5041123;28;20195;-61
2022/04/22 08:18:41;;;;;;;16.33;14.23;;;16.80;1.00;;;;;;5057497;28;20198;-61
2022/04/22 08:21:08;;;;;;;15.47;13.87;;;16.00;1.00;;;;;;5058376;28;20809;-61
2022/04/22 08:23:36;;;;;;;15.53;13.17;;;16.80;1.00;;;;;;5038110;28;20202;-61
2022/04/22 08:26:04;;;;;;;20.87;14.27;;;15.90;1.00;;;;;;5060649;28;20199;-61
2022/04/22 08:28:31;;;;;;;17.03;15.30;;;15.10;1.00;;;;;;5062334;28;22081;-62
2022/04/22 08:30:58;;;;;;;17.87;14.43;;;14.90;35.40;;;;;;5058243;28;20195;-62
2022/04/22 08:33:26;;;;;;;15.30;13.77;;;15.00;1.00;;;;;;5046804;28;20215;-61
2022/04/22 08:35:53;;;;;;;18.13;14.37;;;16.00;1.00;;;;;;5060671;28;20192;-61
2022/04/22 08:38:20;;;;;;;17.20;14.20;;;15.10;1.00;;;;;;5054232;28;20207;-61
2022/04/22 08:40:48;;;;;;;15.33;13.73;;;15.30;1.00;;;;;;5062656;28;20295;-62
2022/04/22 08:43:17;;;;;;;15.53;13.93;;;14.90;1.00;;;;;;5061182;28;20187;-62
2022/04/22 08:45:44;;;;;;;17.53;15.10;;;15.10;1.00;;;;;;5043799;28;20596;-61
2022/04/22 08:51:19;;;;;;;17.07;15.37;;;15.20;1.00;;;;;;4996876;28;20680;-61
2022/04/22 08:53:50;;;;;;;15.90;14.03;;;15.20;1.00;;;;;;4985651;28;20267;-61
2022/04/22 08:56:18;;;;;;;16.70;14.07;;;15.80;1.00;;;;;;5034203;28;20211;-62
2022/04/22 08:58:45;;;;;;;16.63;14.17;;;16.10;1.00;;;;;;5060365;28;20187;-62
2022/04/22 09:01:12;;;;;;;15.60;13.93;;;15.60;1.00;;;;;;5065681;28;20227;-61
2022/04/22 09:03:39;;;;;;;15.77;13.23;;;15.80;1.00;;;;;;5062101;28;20199;-61
2022/04/22 09:06:06;;;;;;;16.53;14.83;;;15.40;1.00;;;;;;5071114;28;20202;-62
2022/04/22 09:08:36;;;;;;;16.57;14.40;;;14.90;2.60;;;;;;5069628;28;20568;-61
2022/04/22 09:11:03;;;;;;;16.37;13.90;;;14.80;85.20;;;;;;5067221;28;20226;-61
2022/04/22 09:13:30;;;;;;;15.60;13.83;;;14.70;90.10;;;;;;5069481;28;20217;-61
2022/04/22 09:15:59;;;;;;;16.50;13.27;;;14.60;99.90;;;;;;5063343;28;20252;-61
2022/04/22 09:18:41;;;;;;;17.03;13.67;;;14.70;96.10;;;;;;5052218;28;20250;-61
2022/04/22 09:21:16;;;;;;;15.20;13.63;;;14.40;99.90;;;;;;5061536;28;20240;-62
2022/04/22 09:23:45;;;;;;;14.23;12.13;;;14.30;99.90;;;;;;5067037;28;20248;-62
2022/04/22 09:26:23;;;;;;;15.70;14.10;;;14.40;99.90;;;;;;5051039;28;20227;-61
2022/04/22 09:29:00;;;;;;;16.00;14.20;;;14.40;99.90;;;;;;5069226;28;20217;-62
2022/04/22 09:31:29;;;;;;;14.60;13.10;;;14.40;99.90;;;;;;5067004;28;20263;-62
2022/04/22 09:33:56;;;;;;;17.40;14.17;;;14.10;99.90;;;;;;5067952;28;20203;-62
2022/04/22 09:45:04;;;;;;;16.77;14.03;;;14.10;99.90;;;;;;5069350;28;20225;-63
2022/04/22 09:47:33;;;;;;;15.30;13.10;;;14.10;99.90;;;;;;5067931;28;20219;-63
2022/04/22 09:50:14;;;;;;;15.80;13.83;;;14.10;99.90;;;;;;5065903;28;20610;-62
2022/04/22 09:52:46;;;;;;;21.60;15.13;;;14.20;99.90;;;;;;5063497;28;20662;-63
2022/04/22 09:55:15;;;;;;;17.57;15.40;;;14.10;99.90;;;;;;5047144;28;20230;-63
2022/04/22 09:57:58;;;;;;;16.73;14.30;;;14.10;99.90;;;;;;5069895;28;20190;-63
2022/04/22 10:00:30;;;;;;;17.17;15.00;;;14.00;99.90;;;;;;5065468;28;20195;-63
2022/04/22 10:02:58;;;;;;;19.57;14.73;;;14.00;99.90;;;;;;5050917;28;20193;-62
2022/04/22 10:05:27;;;;;;;17.40;13.83;;;13.80;99.90;;;;;;5051222;28;20650;-63
2022/04/22 10:07:56;;;;;;;18.23;15.47;;;13.90;99.90;;;;;;5067552;28;20221;-63
2022/04/22 10:10:34;;;;;;;16.37;14.53;;;13.90;99.90;;;;;;5066750;28;20222;-63
2022/04/22 10:13:04;;;;;;;16.70;14.33;;;13.90;99.90;;;;;;5050288;28;20710;-63
2022/04/22 10:15:37;;;;;;;21.93;17.47;;;14.10;99.90;;;;;;5066028;28;20782;-63
2022/04/22 10:18:05;;;;;;;19.30;15.00;;;14.10;99.90;;;;;;5068537;28;20199;-63
2022/04/22 10:20:33;;;;;;;16.70;14.10;;;14.20;99.90;;;;;;5069578;28;20657;-62
2022/04/22 10:23:00;;;;;;;14.87;13.30;;;14.30;99.90;;;;;;5050750;28;20206;-62
2022/04/22 10:25:29;;;;;;;17.57;13.40;;;14.50;99.90;;;;;;5052068;28;20298;-62
2022/04/22 10:28:09;;;;;;;17.00;12.97;;;14.30;99.90;;;;;;5060406;28;20241;-62
2022/04/22 10:30:39;;;;;;;17.03;13.70;;;14.10;99.90;;;;;;5070198;28;20285;-62
2022/04/22 10:33:08;;;;;;;16.40;13.80;;;13.90;99.90;;;;;;5069253;28;20297;-61
2022/04/22 10:35:41;;;;;;;17.47;13.43;;;13.80;99.90;;;;;;5068553;28;20240;-63
2022/04/22 10:38:29;;;;;;;18.67;12.93;;;14.00;99.90;;;;;;5050172;28;20313;-61
2022/04/22 10:40:59;;;;;;;14.57;12.97;;;14.00;99.90;;;;;;5069173;28;20313;-62
2022/04/22 10:43:29;;;;;;;15.50;12.87;;;14.10;99.90;;;;;;5048973;28;20290;-63
2022/04/22 10:49:13;;;;;;;17.53;14.30;;;14.10;99.90;;;;;;5060296;28;20842;-62
2022/04/22 10:52:02;;;;;;;18.80;13.30;;;14.00;99.90;;;;;;5062214;28;20195;-62
2022/04/22 10:54:52;;;;;;;16.57;13.37;;;14.00;99.90;;;;;;5030884;28;20712;-63
2022/04/22 10:57:25;;;;;;;16.53;12.53;;;13.80;99.90;;;;;;5061960;28;20190;-62
2022/04/22 11:00:07;;;;;;;15.73;12.67;;;13.80;99.90;;;;;;5061122;28;20233;-63
2022/04/22 11:02:40;;;;;;;14.13;12.63;;;13.90;99.90;;;;;;5045914;28;20252;-62
2022/04/22 11:07:56;;;;;;;14.17;12.43;;;14.60;99.90;;;;;;5066136;28;20195;-63
2022/04/22 11:10:46;;;;;;;14.67;12.10;;;15.00;1.00;;;;;;5063842;28;20195;-63
2022/04/22 11:13:34;;;;;;;15.07;12.00;;;15.10;4.30;;;;;;5064545;28;20219;-63
2022/04/22 11:16:22;;;;;;;16.10;11.97;;;15.30;1.00;;;;;;5060862;28;20245;-63
2022/04/22 11:19:11;;;;;;;12.00;10.73;;;16.20;1.00;;;;;;5064737;28;20282;-65
2022/04/22 11:21:38;;;;;;;12.30;10.70;;;16.80;1.00;;;;;;5061442;28;20224;-63
2022/04/22 11:24:14;;;;;;;12.35;10.98;;;17.30;1.00;;;;;;5047190;28;20276;-63
2022/04/22 11:26:44;;;;;;;15.38;11.52;;;17.10;1.00;;;;;;5044252;28;20248;-63
2022/04/22 11:29:11;;;;;;;12.85;11.55;;;18.30;1.00;;;;;;5045409;28;20241;-63
2022/04/22 11:31:39;;;;;;;14.63;11.82;;;18.10;1.00;;;;;;5051964;28;20203;-65
2022/04/22 11:34:17;;;;;;;14.15;11.10;;;17.00;1.00;;;;;;5048832;28;20309;-63
2022/04/22 11:36:45;;;;;;;12.02;10.18;;;17.10;1.00;;;;;;5068062;28;20261;-63
2022/04/22 11:39:20;;;;;;;12.00;10.67;;;16.60;1.00;;;;;;5047541;28;20219;-64
2022/04/22 11:42:00;;;;;;;11.83;10.63;;;16.10;1.00;;;;;;5049166;28;20215;-62
2022/04/22 11:44:30;;;;;;;11.87;10.03;;;15.90;1.00;;;;;;5037726;28;20234;-63
2022/04/22 11:47:00;;;;;;;11.33;10.23;;;15.90;1.00;;;;;;5041990;28;20578;-63
2022/04/22 11:49:32;;;;;;;10.93;9.20;;;15.70;1.00;;;;;;5044816;28;20565;-62
2022/04/22 11:52:00;;;;;;;11.30;9.80;;;15.60;1.00;;;;;;5045185;28;20231;-62
2022/04/22 11:54:27;;;;;;;11.53;10.37;;;15.30;1.00;;;;;;5046209;28;20239;-63
2022/04/22 11:56:54;;;;;;;10.80;9.33;;;15.40;1.00;;;;;;5047382;28;20657;-62
2022/04/22 11:59:25;;;;;;;12.80;9.73;;;15.00;1.00;;;;;;5048860;28;20192;-63
2022/04/22 12:10:11;;;;;;;10.40;9.00;;;14.90;1.00;;;;;;5042760;28;20222;-63
2022/04/22 12:12:52;;;;;;;9.90;8.83;;;14.80;1.00;;;;;;5044146;28;20204;-63
2022/04/22 12:15:19;;;;;;;11.60;9.60;;;14.30;23.20;;;;;;5039134;28;20195;-62
2022/04/22 12:17:46;;;;;;;10.87;9.77;;;14.30;54.00;;;;;;5043807;28;20196;-62
2022/04/22 12:20:17;;;;;;;11.10;9.63;;;14.30;82.50;;;;;;5040256;28;20531;-62
2022/04/22 12:22:44;;;;;;;12.10;9.63;;;14.40;47.60;;;;;;5043616;28;20195;-62
2022/04/22 12:25:19;;;;;;;12.70;10.17;;;14.70;15.50;;;;;;5040765;28;20196;-62
2022/04/22 12:28:10;;;;;;;10.80;9.70;;;15.10;1.00;;;;;;5042991;28;20222;-63
2022/04/22 12:30:40;;;;;;;10.47;9.37;;;15.50;1.00;;;;;;5042354;28;20226;-62
2022/04/22 12:33:15;;;;;;;11.27;9.63;;;15.60;1.00;;;;;;5044722;28;20253;-61
2022/04/22 12:35:44;;;;;;;11.03;9.23;;;15.70;1.00;;;;;;5054677;28;20245;-61
2022/04/22 12:38:13;;;;;;;10.57;9.13;;;15.50;1.00;;;;;;5043381;28;20219;-61
2022/04/22 12:40:48;;;;;;;12.37;9.10;;;15.60;1.00;;;;;;5046012;28;20223;-61
2022/04/22 12:43:29;;;;;;;11.80;8.83;;;15.50;1.00;;;;;;5048476;28;20241;-62
2022/04/22 12:52:09;;;;;;;13.37;8.97;;;15.50;1.00;;;;;;5043382;28;20194;-62
2022/04/22 12:54:37;;;;;;;10.60;9.13;;;15.50;1.00;;;;;;5043677;28;20847;-62
2022/04/22 12:57:07;;;;;;;10.57;9.40;;;15.40;1.00;;;;;;5045972;28;20249;-61
2022/04/22 12:59:46;;;;;;;11.17;9.77;;;15.60;1.00;;;;;;5049603;28;20195;-61
2022/04/22 13:02:18;;;;;;;10.60;9.50;;;15.70;1.00;;;;;;5047228;28;20584;-62
2022/04/22 13:04:54;;;;;;;11.33;9.80;;;15.60;1.00;;;;;;5050483;28;20230;-63
2022/04/22 13:07:22;;;;;;;12.30;10.07;;;15.50;1.00;;;;;;5047904;28;20219;-63
2022/04/22 13:09:50;;;;;;;13.13;10.17;;;15.70;1.00;;;;;;5045944;28;20211;-63
2022/04/22 13:12:19;;;;;;;13.20;10.40;;;15.80;1.00;;;;;;5044755;28;20242;-63
2022/04/22 13:14:48;;;;;;;13.50;10.43;;;15.80;1.00;;;;;;5035994;28;20215;-63
2022/04/22 13:17:24;;;;;;;11.93;10.20;;;15.80;1.00;;;;;;5031225;28;20197;-63
2022/04/22 13:19:52;;;;;;;11.97;10.67;;;15.80;1.00;;;;;;5043948;28;20200;-63
2022/04/22 13:22:19;;;;;;;11.87;10.67;;;15.60;1.00;;;;;;5043097;28;20310;-63
2022/04/22 13:24:46;;;;;;;13.53;9.83;;;15.80;1.00;;;;;;5038890;28;20283;-62
2022/04/22 13:27:14;;;;;;;12.23;9.30;;;15.80;1.00;;;;;;5040427;28;20185;-62
2022/04/22 13:29:41;;;;;;;10.47;9.47;;;15.70;1.00;;;;;;5044651;28;21298;-63
2022/04/22 13:32:10;;;;;;;12.13;9.83;;;15.80;1.00;;;;;;5045241;28;20826;-63
2022/04/22 13:34:37;;;;;;;14.43;10.27;;;16.00;1.00;;;;;;5044602;28;20227;-63
2022/04/22 13:37:04;;;;;;;11.83;10.53;;;15.80;1.00;;;;;;5044950;28;20200;-62
2022/04/22 13:39:31;;;;;;;12.03;10.03;;;16.10;1.00;;;;;;5025312;28;20754;-63
2022/04/22 13:41:58;;;;;;;12.43;10.80;;;16.40;1.00;;;;;;5059687;28;20191;-63
2022/04/22 13:52:42;;;;;;;12.00;10.80;;;15.80;1.00;;;;;;5060476;28;20195;-62
2022/04/22 13:55:10;;;;;;;11.10;9.93;;;16.20;1.00;;;;;;5060740;28;20211;-63
2022/04/22 13:57:37;;;;;;;13.60;11.07;;;16.40;1.00;;;;;;5062077;28;20387;-63